Needmore, Indiana
Current Conditions -  °F | °C
As of 12:17 PM on Friday 31 Oct 2014 (Local Time) from KBMG Reporting Station
Overcast Overcast  
Wind Chill: 35°   Ceiling: 1700
Heat Index: 39°   Visibility: 10mi
Dew Point: 36°   Wind: 6mph
Humidity: 89%   Direction: 340°NNW
Pressure: 30.04"   Gusts: NA
Location:  38.8737°N, 86.4563°W
Report Text: KBMG 311617Z 34005KT 10SM BKN017 BKN030 OVC038 04/02 A3004 RMK AO2 RAE13 P0000 T00390022
Loading
Personal Weather Stations






























Interactive Weather Map New forecast layout! Learn more

10-Day Weather Forecast

Advertisements
Track Severe Weather on mobile